sensor_id;sensor_type;location;lat;lon;timestamp;pressure;altitude;pressure_sealevel;temperature;humidity
33155;BME280;19511;42.682;23.332;2022-12-13T00:02:16;94625.72;;;-0.32;100.00
33155;BME280;19511;42.682;23.332;2022-12-13T00:04:42;94538.06;;;-0.81;100.00
33155;BME280;19511;42.682;23.332;2022-12-13T00:07:07;94639.72;;;-0.14;100.00
33155;BME280;19511;42.682;23.332;2022-12-13T00:09:33;94643.56;;;-0.15;100.00
33155;BME280;19511;42.682;23.332;2022-12-13T00:11:58;94648.41;;;-0.09;100.00
33155;BME280;19511;42.682;23.332;2022-12-13T00:14:23;94625.00;;;-0.29;100.00
33155;BME280;19511;42.682;23.332;2022-12-13T00:16:49;94636.06;;;-0.38;100.00
33155;BME280;19511;42.682;23.332;2022-12-13T00:19:16;94528.47;;;-1.10;100.00
33155;BME280;19511;42.682;23.332;2022-12-13T00:21:41;94536.84;;;-1.00;100.00
33155;BME280;19511;42.682;23.332;2022-12-13T00:24:07;94542.28;;;-1.00;100.00
33155;BME280;19511;42.682;23.332;2022-12-13T00:26:34;94628.97;;;-0.43;100.00
33155;BME280;19511;42.682;23.332;2022-12-13T00:29:01;94631.00;;;-0.56;100.00
33155;BME280;19511;42.682;23.332;2022-12-13T00:31:28;94649.91;;;-0.43;100.00
33155;BME280;19511;42.682;23.332;2022-12-13T00:33:56;94628.28;;;-0.72;100.00
33155;BME280;19511;42.682;23.332;2022-12-13T00:36:22;94641.63;;;-0.51;100.00
33155;BME280;19511;42.682;23.332;2022-12-13T00:38:47;94670.09;;;-0.44;100.00
33155;BME280;19511;42.682;23.332;2022-12-13T00:41:26;94673.13;;;-0.46;100.00
33155;BME280;19511;42.682;23.332;2022-12-13T00:43:53;94679.03;;;-0.44;100.00
33155;BME280;19511;42.682;23.332;2022-12-13T00:46:19;94658.19;;;-0.56;100.00
33155;BME280;19511;42.682;23.332;2022-12-13T00:48:51;94676.22;;;-0.47;100.00
33155;BME280;19511;42.682;23.332;2022-12-13T00:51:18;94649.31;;;-0.69;100.00
33155;BME280;19511;42.682;23.332;2022-12-13T00:53:44;94658.00;;;-0.63;100.00
33155;BME280;19511;42.682;23.332;2022-12-13T00:56:17;94667.19;;;-0.68;100.00
33155;BME280;19511;42.682;23.332;2022-12-13T00:58:46;94672.03;;;-0.61;100.00
33155;BME280;19511;42.682;23.332;2022-12-13T01:01:13;94599.19;;;-1.03;100.00
33155;BME280;19511;42.682;23.332;2022-12-13T01:03:39;94678.13;;;-0.64;100.00
33155;BME280;19511;42.682;23.332;2022-12-13T01:06:16;94671.13;;;-0.65;100.00
33155;BME280;19511;42.682;23.332;2022-12-13T01:08:43;94623.28;;;-0.86;100.00
33155;BME280;19511;42.682;23.332;2022-12-13T01:11:09;94649.75;;;-0.67;100.00
33155;BME280;19511;42.682;23.332;2022-12-13T01:13:35;94677.78;;;-0.46;100.00
33155;BME280;19511;42.682;23.332;2022-12-13T01:16:03;94643.19;;;-0.66;100.00
33155;BME280;19511;42.682;23.332;2022-12-13T01:18:29;94671.06;;;-0.37;100.00
33155;BME280;19511;42.682;23.332;2022-12-13T01:21:12;94563.03;;;-1.07;100.00
33155;BME280;19511;42.682;23.332;2022-12-13T01:23:39;94579.84;;;-1.02;100.00
33155;BME280;19511;42.682;23.332;2022-12-13T01:26:08;94677.03;;;-0.47;100.00
33155;BME280;19511;42.682;23.332;2022-12-13T01:28:34;94596.75;;;-0.92;100.00
33155;BME280;19511;42.682;23.332;2022-12-13T01:31:04;94669.19;;;-0.48;100.00
33155;BME280;19511;42.682;23.332;2022-12-13T01:33:31;94637.56;;;-0.73;100.00
33155;BME280;19511;42.682;23.332;2022-12-13T01:35:59;94544.13;;;-1.36;100.00
33155;BME280;19511;42.682;23.332;2022-12-13T01:38:25;94544.38;;;-1.41;100.00
33155;BME280;19511;42.682;23.332;2022-12-13T01:40:51;94642.84;;;-0.80;100.00
33155;BME280;19511;42.682;23.332;2022-12-13T01:43:25;94559.22;;;-1.35;100.00
33155;BME280;19511;42.682;23.332;2022-12-13T01:45:51;94556.09;;;-1.37;100.00
33155;BME280;19511;42.682;23.332;2022-12-13T01:48:23;94678.31;;;-0.57;100.00
33155;BME280;19511;42.682;23.332;2022-12-13T01:50:52;94649.16;;;-0.76;100.00
33155;BME280;19511;42.682;23.332;2022-12-13T01:53:22;94582.00;;;-1.23;100.00
33155;BME280;19511;42.682;23.332;2022-12-13T01:55:54;94677.09;;;-0.59;100.00
33155;BME280;19511;42.682;23.332;2022-12-13T01:58:22;94651.50;;;-0.74;100.00
33155;BME280;19511;42.682;23.332;2022-12-13T02:00:48;94560.72;;;-1.37;100.00
33155;BME280;19511;42.682;23.332;2022-12-13T02:03:15;94573.50;;;-1.38;100.00
33155;BME280;19511;42.682;23.332;2022-12-13T02:08:19;94661.03;;;-0.96;100.00
33155;BME280;19511;42.682;23.332;2022-12-13T02:10:46;94560.97;;;-1.58;100.00
33155;BME280;19511;42.682;23.332;2022-12-13T02:13:12;94570.59;;;-1.45;100.00
33155;BME280;19511;42.682;23.332;2022-12-13T02:24:01;94678.22;;;-0.76;100.00
33155;BME280;19511;42.682;23.332;2022-12-13T02:26:46;94679.53;;;-0.86;100.00
33155;BME280;19511;42.682;23.332;2022-12-13T02:37:05;94679.94;;;-0.84;100.00
33155;BME280;19511;42.682;23.332;2022-12-13T02:39:43;94691.44;;;-0.91;100.00
33155;BME280;19511;42.682;23.332;2022-12-13T02:42:21;94694.25;;;-0.87;100.00
33155;BME280;19511;42.682;23.332;2022-12-13T02:44:56;94692.91;;;-0.93;100.00
33155;BME280;19511;42.682;23.332;2022-12-13T02:47:26;94674.84;;;-1.02;100.00
33155;BME280;19511;42.682;23.332;2022-12-13T02:49:56;94591.13;;;-1.60;100.00
33155;BME280;19511;42.682;23.332;2022-12-13T02:52:25;94628.88;;;-1.39;100.00
33155;BME280;19511;42.682;23.332;2022-12-13T02:54:55;94569.44;;;-1.88;100.00
33155;BME280;19511;42.682;23.332;2022-12-13T02:57:34;94688.75;;;-1.19;100.00
33155;BME280;19511;42.682;23.332;2022-12-13T03:10:58;94697.56;;;-1.22;100.00
33155;BME280;19511;42.682;23.332;2022-12-13T03:18:44;94580.88;;;-1.95;100.00
33155;BME280;19511;42.682;23.332;2022-12-13T03:21:10;94703.34;;;-1.24;100.00
33155;BME280;19511;42.682;23.332;2022-12-13T03:23:37;94688.78;;;-1.32;100.00
33155;BME280;19511;42.682;23.332;2022-12-13T03:26:12;94699.75;;;-1.28;100.00
33155;BME280;19511;42.682;23.332;2022-12-13T03:28:39;94695.97;;;-1.23;100.00
33155;BME280;19511;42.682;23.332;2022-12-13T03:31:06;94699.41;;;-1.39;100.00
33155;BME280;19511;42.682;23.332;2022-12-13T03:33:31;94677.28;;;-1.41;100.00
33155;BME280;19511;42.682;23.332;2022-12-13T03:35:57;94688.56;;;-1.39;100.00
33155;BME280;19511;42.682;23.332;2022-12-13T03:38:24;94696.84;;;-1.48;100.00
33155;BME280;19511;42.682;23.332;2022-12-13T03:40:53;94684.34;;;-1.52;100.00
33155;BME280;19511;42.682;23.332;2022-12-13T03:43:20;94683.03;;;-1.42;100.00
33155;BME280;19511;42.682;23.332;2022-12-13T03:45:45;94686.91;;;-1.43;100.00
33155;BME280;19511;42.682;23.332;2022-12-13T03:48:11;94680.72;;;-1.56;100.00
33155;BME280;19511;42.682;23.332;2022-12-13T03:50:36;94704.22;;;-1.48;100.00
33155;BME280;19511;42.682;23.332;2022-12-13T03:53:02;94710.53;;;-1.56;100.00
33155;BME280;19511;42.682;23.332;2022-12-13T03:55:28;94636.22;;;-2.08;100.00
33155;BME280;19511;42.682;23.332;2022-12-13T03:57:54;94732.34;;;-1.53;100.00
33155;BME280;19511;42.682;23.332;2022-12-13T04:00:20;94707.19;;;-1.66;100.00
33155;BME280;19511;42.682;23.332;2022-12-13T04:02:45;94720.75;;;-1.66;100.00
33155;BME280;19511;42.682;23.332;2022-12-13T04:05:11;94730.47;;;-1.65;100.00
33155;BME280;19511;42.682;23.332;2022-12-13T04:07:36;94691.28;;;-1.79;100.00
33155;BME280;19511;42.682;23.332;2022-12-13T04:10:03;94735.88;;;-1.65;100.00
33155;BME280;19511;42.682;23.332;2022-12-13T04:12:29;94724.41;;;-1.86;100.00
33155;BME280;19511;42.682;23.332;2022-12-13T04:15:13;94624.19;;;-2.48;100.00
33155;BME280;19511;42.682;23.332;2022-12-13T04:17:39;94618.78;;;-2.60;100.00
33155;BME280;19511;42.682;23.332;2022-12-13T04:20:04;94650.69;;;-2.41;100.00
33155;BME280;19511;42.682;23.332;2022-12-13T04:22:30;94745.84;;;-1.81;100.00
33155;BME280;19511;42.682;23.332;2022-12-13T04:24:55;94736.72;;;-1.89;100.00
33155;BME280;19511;42.682;23.332;2022-12-13T04:27:21;94617.22;;;-2.74;100.00
33155;BME280;19511;42.682;23.332;2022-12-13T04:29:46;94762.69;;;-1.88;100.00
33155;BME280;19511;42.682;23.332;2022-12-13T04:32:12;94766.66;;;-1.85;100.00
33155;BME280;19511;42.682;23.332;2022-12-13T04:34:37;94777.03;;;-1.87;100.00
33155;BME280;19511;42.682;23.332;2022-12-13T04:37:03;94783.91;;;-1.90;100.00
33155;BME280;19511;42.682;23.332;2022-12-13T04:39:28;94780.88;;;-2.13;100.00
33155;BME280;19511;42.682;23.332;2022-12-13T04:41:54;94777.03;;;-2.12;100.00
33155;BME280;19511;42.682;23.332;2022-12-13T04:44:19;94781.78;;;-2.09;100.00
33155;BME280;19511;42.682;23.332;2022-12-13T04:46:44;94790.34;;;-2.19;100.00
33155;BME280;19511;42.682;23.332;2022-12-13T04:49:10;94779.03;;;-2.21;100.00
33155;BME280;19511;42.682;23.332;2022-12-13T04:51:35;94782.22;;;-2.19;100.00
33155;BME280;19511;42.682;23.332;2022-12-13T04:54:02;94809.31;;;-2.19;100.00
33155;BME280;19511;42.682;23.332;2022-12-13T04:56:28;94689.03;;;-2.89;100.00
33155;BME280;19511;42.682;23.332;2022-12-13T04:58:53;94791.13;;;-2.31;100.00
33155;BME280;19511;42.682;23.332;2022-12-13T05:01:19;94789.28;;;-2.39;100.00
33155;BME280;19511;42.682;23.332;2022-12-13T05:03:44;94739.72;;;-2.65;100.00
33155;BME280;19511;42.682;23.332;2022-12-13T05:06:12;94689.22;;;-2.94;100.00
33155;BME280;19511;42.682;23.332;2022-12-13T05:08:38;94804.00;;;-2.28;100.00
33155;BME280;19511;42.682;23.332;2022-12-13T05:11:05;94792.81;;;-2.26;100.00
33155;BME280;19511;42.682;23.332;2022-12-13T05:13:30;94812.69;;;-2.22;100.00
33155;BME280;19511;42.682;23.332;2022-12-13T05:16:01;94807.84;;;-2.17;100.00
33155;BME280;19511;42.682;23.332;2022-12-13T05:18:27;94809.34;;;-2.07;100.00
33155;BME280;19511;42.682;23.332;2022-12-13T05:20:53;94800.19;;;-2.15;100.00
33155;BME280;19511;42.682;23.332;2022-12-13T05:23:20;94810.44;;;-2.20;100.00
33155;BME280;19511;42.682;23.332;2022-12-13T05:25:46;94781.63;;;-2.37;100.00
33155;BME280;19511;42.682;23.332;2022-12-13T05:28:11;94712.69;;;-2.86;100.00
33155;BME280;19511;42.682;23.332;2022-12-13T05:30:41;94821.53;;;-2.13;100.00
33155;BME280;19511;42.682;23.332;2022-12-13T05:33:07;94816.75;;;-2.16;100.00
33155;BME280;19511;42.682;23.332;2022-12-13T05:35:36;94809.97;;;-2.22;100.00
33155;BME280;19511;42.682;23.332;2022-12-13T05:38:02;94821.84;;;-2.15;100.00
33155;BME280;19511;42.682;23.332;2022-12-13T05:40:32;94823.97;;;-2.20;100.00
33155;BME280;19511;42.682;23.332;2022-12-13T05:43:05;94820.34;;;-2.37;100.00
33155;BME280;19511;42.682;23.332;2022-12-13T05:45:31;94840.78;;;-2.27;100.00
33155;BME280;19511;42.682;23.332;2022-12-13T05:47:57;94841.34;;;-2.21;100.00
33155;BME280;19511;42.682;23.332;2022-12-13T05:50:23;94828.25;;;-2.32;100.00
33155;BME280;19511;42.682;23.332;2022-12-13T05:52:48;94839.25;;;-2.16;100.00
33155;BME280;19511;42.682;23.332;2022-12-13T05:55:14;94842.16;;;-2.21;100.00
33155;BME280;19511;42.682;23.332;2022-12-13T05:57:39;94765.75;;;-2.72;100.00
33155;BME280;19511;42.682;23.332;2022-12-13T06:00:08;94719.22;;;-2.99;100.00
33155;BME280;19511;42.682;23.332;2022-12-13T06:02:39;94854.38;;;-2.15;100.00
33155;BME280;19511;42.682;23.332;2022-12-13T06:05:09;94859.19;;;-2.20;100.00
33155;BME280;19511;42.682;23.332;2022-12-13T06:07:35;94861.44;;;-2.22;100.00
33155;BME280;19511;42.682;23.332;2022-12-13T06:10:02;94836.38;;;-2.32;100.00
33155;BME280;19511;42.682;23.332;2022-12-13T06:12:28;94854.13;;;-2.22;100.00
33155;BME280;19511;42.682;23.332;2022-12-13T06:14:53;94841.31;;;-2.34;100.00
33155;BME280;19511;42.682;23.332;2022-12-13T06:17:19;94863.25;;;-2.26;100.00
33155;BME280;19511;42.682;23.332;2022-12-13T06:19:56;94863.94;;;-2.30;100.00
33155;BME280;19511;42.682;23.332;2022-12-13T06:22:22;94868.31;;;-2.37;100.00
33155;BME280;19511;42.682;23.332;2022-12-13T06:24:47;94837.56;;;-2.41;100.00
33155;BME280;19511;42.682;23.332;2022-12-13T06:27:13;94674.97;;;-3.49;100.00
33155;BME280;19511;42.682;23.332;2022-12-13T06:29:38;94838.59;;;-2.46;100.00
33155;BME280;19511;42.682;23.332;2022-12-13T06:32:06;94833.63;;;-2.44;100.00
33155;BME280;19511;42.682;23.332;2022-12-13T06:34:33;94865.94;;;-2.26;100.00
33155;BME280;19511;42.682;23.332;2022-12-13T06:36:59;94846.25;;;-2.48;100.00
33155;BME280;19511;42.682;23.332;2022-12-13T06:39:25;94741.03;;;-3.17;100.00
33155;BME280;19511;42.682;23.332;2022-12-13T06:42:18;94863.88;;;-2.42;100.00
33155;BME280;19511;42.682;23.332;2022-12-13T06:47:37;94875.41;;;-2.45;100.00
33155;BME280;19511;42.682;23.332;2022-12-13T06:50:08;94780.84;;;-3.05;100.00
33155;BME280;19511;42.682;23.332;2022-12-13T06:52:34;94864.34;;;-2.40;100.00
33155;BME280;19511;42.682;23.332;2022-12-13T06:54:59;94863.41;;;-2.44;100.00
33155;BME280;19511;42.682;23.332;2022-12-13T06:57:25;94851.47;;;-2.43;100.00
33155;BME280;19511;42.682;23.332;2022-12-13T06:59:50;94857.00;;;-2.39;100.00
33155;BME280;19511;42.682;23.332;2022-12-13T07:02:16;94855.53;;;-2.37;100.00
33155;BME280;19511;42.682;23.332;2022-12-13T07:04:41;94788.75;;;-2.79;100.00
33155;BME280;19511;42.682;23.332;2022-12-13T07:07:07;94875.94;;;-2.18;100.00
33155;BME280;19511;42.682;23.332;2022-12-13T07:09:32;94868.00;;;-2.23;100.00
33155;BME280;19511;42.682;23.332;2022-12-13T07:11:58;94826.75;;;-2.41;100.00
33155;BME280;19511;42.682;23.332;2022-12-13T07:14:24;94888.03;;;-2.03;100.00
33155;BME280;19511;42.682;23.332;2022-12-13T07:16:49;94889.16;;;-2.04;100.00
33155;BME280;19511;42.682;23.332;2022-12-13T07:19:15;94857.16;;;-2.23;100.00
33155;BME280;19511;42.682;23.332;2022-12-13T07:21:40;94889.84;;;-1.95;100.00
33155;BME280;19511;42.682;23.332;2022-12-13T07:24:06;94818.88;;;-2.34;100.00
33155;BME280;19511;42.682;23.332;2022-12-13T07:26:32;94901.03;;;-1.97;100.00
33155;BME280;19511;42.682;23.332;2022-12-13T07:28:57;94893.78;;;-2.05;100.00
33155;BME280;19511;42.682;23.332;2022-12-13T07:31:23;94846.16;;;-2.39;100.00
33155;BME280;19511;42.682;23.332;2022-12-13T07:33:49;94900.66;;;-2.07;100.00
33155;BME280;19511;42.682;23.332;2022-12-13T07:36:20;94903.88;;;-1.93;100.00
33155;BME280;19511;42.682;23.332;2022-12-13T07:38:58;94800.44;;;-2.53;100.00
33155;BME280;19511;42.682;23.332;2022-12-13T07:41:25;94898.16;;;-1.79;100.00
33155;BME280;19511;42.682;23.332;2022-12-13T07:43:51;94908.41;;;-1.85;100.00
33155;BME280;19511;42.682;23.332;2022-12-13T07:46:17;94894.28;;;-1.90;100.00
33155;BME280;19511;42.682;23.332;2022-12-13T07:48:42;94904.78;;;-1.89;100.00
33155;BME280;19511;42.682;23.332;2022-12-13T07:51:09;94899.47;;;-1.85;100.00
33155;BME280;19511;42.682;23.332;2022-12-13T07:53:36;94811.53;;;-2.46;100.00
33155;BME280;19511;42.682;23.332;2022-12-13T07:56:09;94923.66;;;-1.80;100.00
33155;BME280;19511;42.682;23.332;2022-12-13T08:01:05;94722.81;;;-2.95;100.00
33155;BME280;19511;42.682;23.332;2022-12-13T08:03:32;94909.44;;;-1.65;100.00
33155;BME280;19511;42.682;23.332;2022-12-13T08:06:01;94913.06;;;-1.60;100.00
33155;BME280;19511;42.682;23.332;2022-12-13T08:08:28;94900.84;;;-1.67;100.00
33155;BME280;19511;42.682;23.332;2022-12-13T08:10:53;94811.88;;;-2.35;100.00
33155;BME280;19511;42.682;23.332;2022-12-13T08:13:18;94918.47;;;-1.73;100.00
33155;BME280;19511;42.682;23.332;2022-12-13T08:15:44;94924.25;;;-1.62;100.00
33155;BME280;19511;42.682;23.332;2022-12-13T08:18:09;94833.81;;;-2.16;100.00
33155;BME280;19511;42.682;23.332;2022-12-13T08:20:38;94914.09;;;-1.65;100.00
33155;BME280;19511;42.682;23.332;2022-12-13T08:23:04;94856.88;;;-1.85;100.00
33155;BME280;19511;42.682;23.332;2022-12-13T08:25:30;94869.44;;;-1.80;100.00
33155;BME280;19511;42.682;23.332;2022-12-13T08:27:55;94923.47;;;-1.38;100.00
33155;BME280;19511;42.682;23.332;2022-12-13T08:30:21;94922.59;;;-1.29;100.00
33155;BME280;19511;42.682;23.332;2022-12-13T08:32:49;94914.56;;;-1.38;100.00
33155;BME280;19511;42.682;23.332;2022-12-13T08:35:15;94918.72;;;-1.16;100.00
33155;BME280;19511;42.682;23.332;2022-12-13T08:37:40;94911.81;;;-1.13;100.00
33155;BME280;19511;42.682;23.332;2022-12-13T08:40:06;94905.81;;;-1.07;100.00
33155;BME280;19511;42.682;23.332;2022-12-13T08:42:32;94888.41;;;-1.18;100.00
33155;BME280;19511;42.682;23.332;2022-12-13T08:44:57;94889.38;;;-0.86;100.00
33155;BME280;19511;42.682;23.332;2022-12-13T08:47:24;94856.81;;;-0.98;100.00
33155;BME280;19511;42.682;23.332;2022-12-13T08:49:51;94825.00;;;-0.85;100.00
33155;BME280;19511;42.682;23.332;2022-12-13T08:52:19;94891.84;;;0.05;100.00
33155;BME280;19511;42.682;23.332;2022-12-13T08:54:45;94887.50;;;0.16;100.00
33155;BME280;19511;42.682;23.332;2022-12-13T08:57:10;94872.31;;;0.15;100.00
33155;BME280;19511;42.682;23.332;2022-12-13T08:59:37;94834.56;;;-0.19;100.00
33155;BME280;19511;42.682;23.332;2022-12-13T09:02:02;94874.22;;;-0.02;100.00
33155;BME280;19511;42.682;23.332;2022-12-13T09:04:28;94865.69;;;-0.16;100.00
33155;BME280;19511;42.682;23.332;2022-12-13T09:06:55;94811.59;;;-0.66;100.00
33155;BME280;19511;42.682;23.332;2022-12-13T09:09:21;94866.31;;;-0.23;100.00
33155;BME280;19511;42.682;23.332;2022-12-13T09:11:49;94870.00;;;-0.15;100.00
33155;BME280;19511;42.682;23.332;2022-12-13T09:14:14;94867.63;;;-0.17;100.00
33155;BME280;19511;42.682;23.332;2022-12-13T09:16:40;94866.16;;;-0.14;100.00
33155;BME280;19511;42.682;23.332;2022-12-13T09:19:05;94769.41;;;-0.75;100.00
33155;BME280;19511;42.682;23.332;2022-12-13T09:21:31;94806.00;;;-0.41;100.00
33155;BME280;19511;42.682;23.332;2022-12-13T09:23:57;94849.31;;;-0.04;100.00
33155;BME280;19511;42.682;23.332;2022-12-13T09:26:24;94838.09;;;-0.02;100.00
33155;BME280;19511;42.682;23.332;2022-12-13T09:28:49;94767.91;;;-0.44;100.00
33155;BME280;19511;42.682;23.332;2022-12-13T09:31:17;94846.69;;;0.16;100.00
33155;BME280;19511;42.682;23.332;2022-12-13T09:33:43;94845.91;;;0.31;100.00
33155;BME280;19511;42.682;23.332;2022-12-13T09:36:18;94848.09;;;0.26;100.00
33155;BME280;19511;42.682;23.332;2022-12-13T09:38:47;94848.09;;;0.10;100.00
33155;BME280;19511;42.682;23.332;2022-12-13T09:41:30;94801.59;;;-0.17;100.00
33155;BME280;19511;42.682;23.332;2022-12-13T09:44:20;94838.44;;;0.12;100.00
33155;BME280;19511;42.682;23.332;2022-12-13T09:46:51;94836.25;;;0.18;100.00
33155;BME280;19511;42.682;23.332;2022-12-13T09:49:39;94811.16;;;0.09;100.00
33155;BME280;19511;42.682;23.332;2022-12-13T09:52:09;94826.41;;;-0.03;100.00
33155;BME280;19511;42.682;23.332;2022-12-13T09:54:38;94767.91;;;-0.44;100.00
33155;BME280;19511;42.682;23.332;2022-12-13T09:57:13;94838.06;;;0.14;100.00
33155;BME280;19511;42.682;23.332;2022-12-13T09:59:40;94835.47;;;0.18;100.00
33155;BME280;19511;42.682;23.332;2022-12-13T10:02:38;94838.69;;;0.39;100.00
33155;BME280;19511;42.682;23.332;2022-12-13T10:05:20;94785.38;;;0.03;100.00
33155;BME280;19511;42.682;23.332;2022-12-13T10:07:47;94827.03;;;0.39;100.00
33155;BME280;19511;42.682;23.332;2022-12-13T10:10:14;94733.38;;;-0.12;100.00
33155;BME280;19511;42.682;23.332;2022-12-13T10:15:11;94754.03;;;0.41;100.00
33155;BME280;19511;42.682;23.332;2022-12-13T10:17:40;94806.63;;;1.20;100.00
33155;BME280;19511;42.682;23.332;2022-12-13T10:20:14;94725.34;;;1.02;100.00
33155;BME280;19511;42.682;23.332;2022-12-13T10:22:41;94769.19;;;1.79;100.00
33155;BME280;19511;42.682;23.332;2022-12-13T10:25:06;94791.66;;;2.42;100.00
33155;BME280;19511;42.682;23.332;2022-12-13T10:30:09;94762.28;;;2.58;100.00
33155;BME280;19511;42.682;23.332;2022-12-13T10:37:54;94751.13;;;1.94;100.00
33155;BME280;19511;42.682;23.332;2022-12-13T10:40:31;94707.75;;;1.85;100.00
33155;BME280;19511;42.682;23.332;2022-12-13T10:43:20;94772.09;;;1.90;100.00
33155;BME280;19511;42.682;23.332;2022-12-13T10:45:56;94774.38;;;1.84;100.00
33155;BME280;19511;42.682;23.332;2022-12-13T10:48:38;94766.66;;;1.47;100.00
33155;BME280;19511;42.682;23.332;2022-12-13T10:53:38;94736.94;;;1.19;100.00
33155;BME280;19511;42.682;23.332;2022-12-13T10:56:05;94746.19;;;1.14;100.00
33155;BME280;19511;42.682;23.332;2022-12-13T10:58:42;94658.50;;;0.46;100.00
33155;BME280;19511;42.682;23.332;2022-12-13T11:01:22;94753.94;;;1.12;100.00
33155;BME280;19511;42.682;23.332;2022-12-13T11:04:02;94761.84;;;1.17;100.00
33155;BME280;19511;42.682;23.332;2022-12-13T11:06:40;94754.66;;;1.28;100.00
33155;BME280;19511;42.682;23.332;2022-12-13T11:09:23;94729.19;;;1.40;100.00
33155;BME280;19511;42.682;23.332;2022-12-13T11:11:50;94745.91;;;1.62;100.00
33155;BME280;19511;42.682;23.332;2022-12-13T11:14:21;94715.78;;;1.32;100.00
33155;BME280;19511;42.682;23.332;2022-12-13T11:16:56;94740.53;;;1.66;100.00
33155;BME280;19511;42.682;23.332;2022-12-13T11:19:35;94732.16;;;1.55;100.00
33155;BME280;19511;42.682;23.332;2022-12-13T11:22:02;94734.41;;;1.29;100.00
33155;BME280;19511;42.682;23.332;2022-12-13T11:24:34;94735.50;;;1.25;100.00
33155;BME280;19511;42.682;23.332;2022-12-13T11:40:58;94739.75;;;1.22;100.00
33155;BME280;19511;42.682;23.332;2022-12-13T11:43:45;94741.34;;;1.23;100.00
33155;BME280;19511;42.682;23.332;2022-12-13T11:46:34;94731.28;;;1.27;100.00
33155;BME280;19511;42.682;23.332;2022-12-13T11:49:08;94711.16;;;1.12;100.00
33155;BME280;19511;42.682;23.332;2022-12-13T11:51:43;94731.44;;;1.35;100.00
33155;BME280;19511;42.682;23.332;2022-12-13T11:54:42;94728.34;;;1.17;100.00
33155;BME280;19511;42.682;23.332;2022-12-13T11:57:43;94678.50;;;0.93;100.00
33155;BME280;19511;42.682;23.332;2022-12-13T12:00:26;94709.50;;;1.27;100.00
33155;BME280;19511;42.682;23.332;2022-12-13T12:03:01;94719.25;;;1.28;100.00
33155;BME280;19511;42.682;23.332;2022-12-13T12:05:33;94726.09;;;1.42;100.00
33155;BME280;19511;42.682;23.332;2022-12-13T12:08:11;94706.63;;;1.43;100.00
33155;BME280;19511;42.682;23.332;2022-12-13T12:10:42;94708.72;;;1.50;100.00
33155;BME280;19511;42.682;23.332;2022-12-13T12:13:38;94694.19;;;1.42;100.00
33155;BME280;19511;42.682;23.332;2022-12-13T12:18:44;94698.72;;;1.35;100.00
33155;BME280;19511;42.682;23.332;2022-12-13T12:32:22;94715.47;;;1.37;100.00
33155;BME280;19511;42.682;23.332;2022-12-13T12:37:39;94710.47;;;1.39;100.00
33155;BME280;19511;42.682;23.332;2022-12-13T12:43:06;94714.25;;;1.54;100.00
33155;BME280;19511;42.682;23.332;2022-12-13T12:52:12;94729.91;;;1.37;100.00
33155;BME280;19511;42.682;23.332;2022-12-13T13:00:22;94734.69;;;1.44;100.00
33155;BME280;19511;42.682;23.332;2022-12-13T13:05:21;94721.31;;;1.35;100.00
33155;BME280;19511;42.682;23.332;2022-12-13T13:10:46;94739.31;;;1.40;100.00
33155;BME280;19511;42.682;23.332;2022-12-13T13:13:47;94757.94;;;1.38;100.00
33155;BME280;19511;42.682;23.332;2022-12-13T13:18:59;94757.09;;;1.34;100.00
33155;BME280;19511;42.682;23.332;2022-12-13T13:21:32;94771.94;;;1.36;100.00
33155;BME280;19511;42.682;23.332;2022-12-13T13:34:27;94783.03;;;1.27;100.00
33155;BME280;19511;42.682;23.332;2022-12-13T13:36:57;94796.38;;;1.33;100.00
33155;BME280;19511;42.682;23.332;2022-12-13T13:47:34;94784.56;;;1.25;100.00
33155;BME280;19511;42.682;23.332;2022-12-13T13:53:19;94774.03;;;1.23;100.00
33155;BME280;19511;42.682;23.332;2022-12-13T13:56:18;94767.13;;;1.10;100.00
33155;BME280;19511;42.682;23.332;2022-12-13T13:59:29;94761.53;;;1.03;100.00
33155;BME280;19511;42.682;23.332;2022-12-13T14:10:25;94754.72;;;1.12;100.00
33155;BME280;19511;42.682;23.332;2022-12-13T14:29:53;94750.38;;;0.53;100.00
33155;BME280;19511;42.682;23.332;2022-12-13T14:32:26;94756.28;;;0.55;100.00
33155;BME280;19511;42.682;23.332;2022-12-13T14:38:21;94639.59;;;-0.38;100.00
33155;BME280;19511;42.682;23.332;2022-12-13T14:40:58;94731.72;;;0.35;100.00
33155;BME280;19511;42.682;23.332;2022-12-13T14:43:32;94736.03;;;0.36;100.00
33155;BME280;19511;42.682;23.332;2022-12-13T14:46:07;94763.78;;;0.10;100.00
33155;BME280;19511;42.682;23.332;2022-12-13T14:48:47;94744.78;;;-0.06;100.00
33155;BME280;19511;42.682;23.332;2022-12-13T14:53:54;94739.31;;;0.26;100.00
33155;BME280;19511;42.682;23.332;2022-12-13T14:56:24;94741.84;;;0.19;100.00
33155;BME280;19511;42.682;23.332;2022-12-13T14:58:56;94773.53;;;0.27;100.00
33155;BME280;19511;42.682;23.332;2022-12-13T15:04:13;94761.34;;;0.05;100.00
33155;BME280;19511;42.682;23.332;2022-12-13T15:06:42;94769.50;;;0.05;100.00
33155;BME280;19511;42.682;23.332;2022-12-13T15:09:17;94783.16;;;-0.08;100.00
33155;BME280;19511;42.682;23.332;2022-12-13T15:11:59;94796.34;;;-0.10;100.00
33155;BME280;19511;42.682;23.332;2022-12-13T15:14:54;94704.75;;;-0.86;100.00
33155;BME280;19511;42.682;23.332;2022-12-13T15:17:31;94807.28;;;-0.22;100.00
33155;BME280;19511;42.682;23.332;2022-12-13T15:19:58;94768.88;;;-0.37;100.00
33155;BME280;19511;42.682;23.332;2022-12-13T15:22:23;94791.75;;;-0.22;100.00
33155;BME280;19511;42.682;23.332;2022-12-13T15:24:49;94783.50;;;-0.41;100.00
33155;BME280;19511;42.682;23.332;2022-12-13T15:27:17;94806.13;;;-0.37;100.00
33155;BME280;19511;42.682;23.332;2022-12-13T15:29:44;94807.91;;;-0.29;100.00
33155;BME280;19511;42.682;23.332;2022-12-13T15:32:17;94820.53;;;-0.21;100.00
33155;BME280;19511;42.682;23.332;2022-12-13T15:34:48;94820.41;;;-0.24;100.00
33155;BME280;19511;42.682;23.332;2022-12-13T15:37:28;94737.22;;;-0.89;100.00
33155;BME280;19511;42.682;23.332;2022-12-13T15:40:04;94832.78;;;-0.27;100.00